Flight Track Log - Related Links

Times and Time Zones

All times are in EDT time to prevent confusion due to time zone crossing. See the SWA2955 flight status page for this flight to view local times or setup timezone preferences in your user account.

Time Position Orientation Groundspeed Altitude Reporting Facility
EDT Latitude Longitude Course Direction KTS MPH feet Rate Location/Type
Thu 01:02:34 PM 29.9450 -90.2622 195° South 162 186 3,700  Level Houston Center
Thu 01:03:29 PM 29.8950 -90.2714 189° South 230 265 5,700 1,448 Climbing Houston Center
Thu 01:04:30 PM 29.8353 -90.3003 203° Southwest 245 282 6,500 2,045 Climbing Houston Center
Thu 01:05:41 PM 29.8081 -90.3692 246° West 251 289 10,200 3,293 Climbing Houston Center
Thu 01:06:43 PM 29.7997 -90.4500 263° West 256 295 13,800 3,415 Climbing Houston Center
Thu 01:07:44 PM 29.8125 -90.5581 278° West 284 327 17,200 3,073 Climbing Houston Center
Thu 01:08:46 PM 29.8536 -90.6469 298° West 338 389 20,100 2,661 Climbing Houston Center
Thu 01:09:48 PM 29.9183 -90.7297 312° West 346 398 22,700 2,323 Climbing Houston Center
Thu 01:10:50 PM 29.9817 -90.8178 310° West 355 409 24,900 1,645 Climbing Houston Center
Thu 01:11:52 PM 30.0381 -90.9175 303° West 368 423 26,100 1,113 Climbing Houston Center
Thu 01:12:54 PM 30.1047 -91.0292 305° West 421 484 27,200 1,415 Climbing Houston Center
Thu 01:13:55 PM 30.1853 -91.1369 311° West 438 504 29,000 1,854 Climbing Houston Center
Thu 01:14:57 PM 30.2875 -91.2661 313° West 451 519 31,000 1,790 Climbing Houston Center
Thu 01:15:59 PM 30.3731 -91.3728 313° West 451 519 32,700 1,645 Climbing Houston Center
Thu 01:17:01 PM 30.4572 -91.4794 312° West 448 516 34,400 1,452 Climbing Houston Center
Thu 01:18:03 PM 30.5378 -91.5794 313° West 445 512 35,700 1,403 Climbing Houston Center
Thu 01:19:05 PM 30.6203 -91.6853 312° West 443 510 37,300 1,113 Climbing Houston Center
Thu 01:20:07 PM 30.7181 -91.8100 312° West 436 502 38,000 341 Climbing Houston Center
Thu 01:21:08 PM 30.8006 -91.9153 312° West 437 503 38,000  Level Houston Center
Thu 01:22:10 PM 30.8839 -92.0208 313° West 441 507 38,000  Level Houston Center
Thu 01:23:12 PM 30.9672 -92.1275 312° West 445 512 38,000  Level Houston Center
Thu 01:24:14 PM 31.0514 -92.2372 312° West 439 505 38,000  Level Houston Center
Thu 01:25:16 PM 31.1344 -92.3428 313° West 441 507 38,000  Level Houston Center
Thu 01:26:18 PM 31.2172 -92.4500 312° West 444 511 38,000  Level Houston Center
Thu 01:27:19 PM 31.2811 -92.5678 302° West 439 505 38,000  Level Houston Center
Thu 01:28:21 PM 31.3375 -92.7142 294° West 417 480 38,000  Level Houston Center
Thu 01:29:23 PM 31.3842 -92.8392 294° West 418 481 38,000  Level Houston Center
Thu 01:30:25 PM 31.4311 -92.9625 294° West 418 481 38,000  Level Houston Center
Thu 01:31:27 PM 31.4778 -93.0858 294° West 416 479 38,000 -48 Level Houston Center
Thu 01:32:29 PM 31.5228 -93.2086 293° West 414 476 37,900  Descending Houston Center
Thu 01:33:30 PM 31.5725 -93.3411 294° West 412 474 38,000 49 Climbing Houston Center
Thu 01:34:32 PM 31.6186 -93.4644 294° West 413 475 38,000  Level Houston Center
Thu 01:35:19 PM 31.6539 -93.5744 291° West 410 472 38,000  Level Fort Worth Center
Thu 01:36:19 PM 31.7014 -93.6972 294° West 410 472 38,000  Level Fort Worth Center
Thu 01:37:19 PM 31.7467 -93.8222 293° West 410 472 38,000  Level Fort Worth Center
Thu 01:38:19 PM 31.7753 -93.9483 285° West 410 472 38,000  Level Fort Worth Center
Thu 01:39:19 PM 31.7997 -94.0769 283° West 404 465 38,000  Level Fort Worth Center
Thu 01:40:19 PM 31.8281 -94.2078 284° West 404 465 38,000  Level Fort Worth Center
Thu 01:41:19 PM 31.8753 -94.3358 294° West 418 481 38,000  Level Fort Worth Center
Thu 01:42:19 PM 31.9222 -94.4642 293° West 423 487 38,000 -133 Level Fort Worth Center
Thu 01:44:19 PM 32.0094 -94.7233 292° West 428 493 37,600 -700 Descending Fort Worth Center
Thu 01:45:19 PM 32.0558 -94.8519 293° West 428 493 35,900 -2,400 Descending Fort Worth Center
Thu 01:46:19 PM 32.1067 -95.0000 292° West 436 502 32,800 -2,750 Descending Fort Worth Center
Thu 01:47:19 PM 32.1531 -95.1314 293° West 436 502 30,400 -2,350 Descending Fort Worth Center
Thu 01:48:19 PM 32.1950 -95.2581 291° West 430 495 28,100 -2,250 Descending Fort Worth Center
Thu 01:49:19 PM 32.2389 -95.3822 293° West 420 483 25,900 -2,200 Descending Fort Worth Center
Thu 01:50:19 PM 32.2783 -95.5017 291° West 410 472 23,700 -2,100 Descending Fort Worth Center
Thu 01:51:19 PM 32.3194 -95.6139 293° West 393 452 21,700 -1,900 Descending Fort Worth Center
Thu 01:52:19 PM 32.3544 -95.7239 291° West 378 435 19,900 -1,900 Descending Fort Worth Center
Thu 01:53:19 PM 32.3914 -95.8289 293° West 363 418 17,900 -2,000 Descending Fort Worth Center
Thu 01:54:19 PM 32.4281 -95.9342 292° West 353 406 15,900 -2,100 Descending Fort Worth Center
Thu 01:55:19 PM 32.4625 -96.0319 293° West 334 384 13,700 -1,983 Descending Fort Worth Center
Thu 01:56:20 PM 32.4950 -96.1300 291° West 326 375 11,900 -1,700 Descending Fort Worth Center
Thu 01:57:19 PM 32.5250 -96.2208 291° West 313 360 10,300 -1,210 Descending Fort Worth Center
Thu 01:58:19 PM 32.5531 -96.3019 292° West 285 328 9,500 -1,041 Descending Fort Worth Center
Thu 01:59:20 PM 32.5828 -96.3681 298° West 259 298 8,200 -1,550 Descending Fort Worth Center
Thu 02:00:19 PM 32.6147 -96.4492 295° West 250 288 6,400 -1,563 Descending Fort Worth Center
Thu 02:01:19 PM 32.6297 -96.5228 284° West 255 293 5,100 -1,537 Descending Fort Worth Center
Thu 02:02:20 PM 32.6722 -96.5989 304° West 250 288 3,300 -1,050 Descending Fort Worth Center
Thu 02:03:19 PM 32.7058 -96.6581 304° West 251 289 3,000 -151 Descending Fort Worth Center
Thu 02:04:19 PM 32.7458 -96.7242 306° West 234 269 3,000 -200 Level Fort Worth Center
Thu 02:05:19 PM 32.7733 -96.7736 303° West 215 247 2,600 -375 Descending Fort Worth Center
Thu 02:05:39 PM 32.7833 -96.7833 321° Northwest 167 192 2,500 -1,216 Descending Dallas / Fort Worth TRACON
Thu 02:06:33 PM 32.8167 -96.8167 320° Northwest 138 159 1,100 -1,556 Descending Dallas / Fort Worth TRACON
Thu 02:13:00 PM 32.8471 -96.8518 308° West  Level Estimated
Thu 02:20:00 PM 32.8471 -96.8518 130° Southeast  Level Estimated
Thu 02:21:00 PM 32.8471 -96.8518 130° Southeast  Level Estimated
Thu 02:22:00 PM 32.8471 -96.8518 130° Southeast  Level Estimated

Login

Don't have an account? Register now (free) for customized features, flight alerts, and more!